createdAt,value
2022-08-17T00:00:10.208Z,93.30
2022-08-17T00:03:00.273Z,93.20
2022-08-17T00:05:34.099Z,93.20
2022-08-17T00:08:01.030Z,93.20
2022-08-17T00:10:28.018Z,93.20
2022-08-17T00:12:56.796Z,93.20
2022-08-17T00:15:24.725Z,93.40
2022-08-17T00:17:52.688Z,93.60
2022-08-17T00:20:19.772Z,93.80
2022-08-17T00:22:50.438Z,94.00
2022-08-17T00:25:19.938Z,94.00
2022-08-17T00:27:46.848Z,94.00
2022-08-17T00:30:14.481Z,94.20
2022-08-17T00:33:14.593Z,94.30
2022-08-17T00:35:33.796Z,94.10
2022-08-17T00:38:00.607Z,94.20
2022-08-17T00:40:27.606Z,94.20
2022-08-17T00:43:19.979Z,94.40
2022-08-17T00:45:47.752Z,94.40
2022-08-17T00:48:28.975Z,94.40
2022-08-17T00:51:16.290Z,94.50
2022-08-17T00:53:45.691Z,94.60
2022-08-17T00:56:17.068Z,94.60
2022-08-17T00:58:44.559Z,94.60
2022-08-17T01:01:12.779Z,94.60
2022-08-17T01:03:50.318Z,94.50
2022-08-17T01:06:17.788Z,94.50
2022-08-17T01:08:44.931Z,94.60
2022-08-17T01:11:11.661Z,95.10
2022-08-17T01:13:41.859Z,94.80
2022-08-17T01:16:25.007Z,95.00
2022-08-17T01:18:54.994Z,94.90
2022-08-17T01:21:43.885Z,94.40
2022-08-17T01:24:10.802Z,94.10
2022-08-17T01:26:40.659Z,94.20
2022-08-17T01:29:07.975Z,94.20
2022-08-17T01:32:02.280Z,94.50
2022-08-17T01:34:42.101Z,94.90
2022-08-17T01:37:11.768Z,95.00
2022-08-17T01:39:43.623Z,95.00
2022-08-17T01:42:20.856Z,94.80
2022-08-17T01:44:47.667Z,94.30
2022-08-17T01:47:14.809Z,94.80
2022-08-17T01:49:41.563Z,95.20
2022-08-17T01:52:12.051Z,95.40
2022-08-17T01:54:41.295Z,95.60
2022-08-17T01:57:08.857Z,96.00
2022-08-17T01:59:35.655Z,95.80
2022-08-17T02:02:04.829Z,96.10
2022-08-17T02:04:32.018Z,96.20
2022-08-17T02:06:58.760Z,96.20
2022-08-17T02:09:29.822Z,96.50
2022-08-17T02:11:59.080Z,96.10
2022-08-17T02:14:26.405Z,96.10
2022-08-17T02:16:54.045Z,96.20
2022-08-17T02:19:21.874Z,96.10
2022-08-17T02:21:50.635Z,96.10
2022-08-17T02:25:00.551Z,96.30
2022-08-17T02:27:11.502Z,96.20
2022-08-17T02:29:38.395Z,96.10
2022-08-17T02:32:05.514Z,96.20
2022-08-17T02:34:33.145Z,96.30
2022-08-17T02:36:59.899Z,96.40
2022-08-17T02:39:26.672Z,96.40
2022-08-17T02:42:02.097Z,96.30
2022-08-17T02:44:38.817Z,96.50
2022-08-17T02:47:08.688Z,96.70
2022-08-17T02:49:35.440Z,96.80
2022-08-17T02:52:07.081Z,96.80
2022-08-17T02:54:39.334Z,96.60
2022-08-17T02:57:09.853Z,96.90
2022-08-17T02:59:37.524Z,96.50
2022-08-17T03:02:06.449Z,96.50
2022-08-17T03:04:35.195Z,96.70
2022-08-17T03:07:02.856Z,96.80
2022-08-17T03:09:29.654Z,97.10
2022-08-17T03:12:04.777Z,96.80
2022-08-17T03:14:32.425Z,96.90
2022-08-17T03:16:59.366Z,97.00
2022-08-17T03:19:26.122Z,96.90
2022-08-17T03:21:55.354Z,96.70
2022-08-17T03:24:22.330Z,96.70
2022-08-17T03:26:55.700Z,96.70
2022-08-17T03:29:22.430Z,96.80
2022-08-17T03:31:49.955Z,96.60
2022-08-17T03:34:17.850Z,96.70
2022-08-17T03:36:44.808Z,96.90
2022-08-17T03:39:11.573Z,96.90
2022-08-17T03:41:39.300Z,97.10
2022-08-17T03:44:06.125Z,97.40
2022-08-17T03:46:51.499Z,97.70
2022-08-17T03:49:36.984Z,97.70
2022-08-17T03:52:42.343Z,97.60
2022-08-17T03:55:32.902Z,97.60
2022-08-17T03:58:03.064Z,97.40
2022-08-17T04:00:30.211Z,97.30
2022-08-17T04:02:57.709Z,97.10
2022-08-17T04:05:24.440Z,96.90
2022-08-17T04:07:51.842Z,96.90
2022-08-17T04:10:18.595Z,97.10
2022-08-17T04:12:50.668Z,97.40
2022-08-17T04:15:18.516Z,98.00
2022-08-17T04:17:45.833Z,98.00
2022-08-17T04:20:13.580Z,98.40
2022-08-17T04:22:40.500Z,98.00
2022-08-17T04:25:18.480Z,97.70
2022-08-17T04:27:45.267Z,97.60
2022-08-17T04:30:12.875Z,97.50
2022-08-17T04:33:04.215Z,97.60
2022-08-17T04:35:37.405Z,97.90
2022-08-17T04:38:04.963Z,97.80
2022-08-17T04:40:50.388Z,97.80
2022-08-17T04:43:20.604Z,97.40
2022-08-17T04:45:55.067Z,97.40
2022-08-17T04:48:29.589Z,97.50
2022-08-17T04:51:19.895Z,97.60
2022-08-17T04:53:54.104Z,97.40
2022-08-17T04:56:23.296Z,97.50
2022-08-17T04:58:52.637Z,97.90
2022-08-17T05:01:23.831Z,98.00
2022-08-17T05:03:53.328Z,98.10
2022-08-17T05:06:20.682Z,98.30
2022-08-17T05:08:47.496Z,98.40
2022-08-17T05:11:14.936Z,98.40
2022-08-17T05:13:42.163Z,98.20
2022-08-17T05:16:09.199Z,98.00
2022-08-17T05:18:38.720Z,97.90
2022-08-17T05:21:06.668Z,97.80
2022-08-17T05:23:41.747Z,97.50
2022-08-17T05:26:22.591Z,97.60
2022-08-17T05:29:00.638Z,97.50
2022-08-17T05:31:30.495Z,97.40
2022-08-17T05:33:57.380Z,97.30
2022-08-17T05:36:42.517Z,97.20
2022-08-17T05:39:15.805Z,97.20
2022-08-17T05:41:45.431Z,97.10
2022-08-17T05:44:12.141Z,97.50
2022-08-17T05:46:43.445Z,97.60
2022-08-17T05:49:25.206Z,97.20
2022-08-17T05:52:03.620Z,97.10
2022-08-17T05:54:48.530Z,96.90
2022-08-17T05:57:47.698Z,97.00
2022-08-17T06:00:30.673Z,97.20
2022-08-17T06:03:33.428Z,97.50
2022-08-17T06:06:34.096Z,97.10
2022-08-17T06:09:28.915Z,96.70
2022-08-17T06:12:14.297Z,96.90
2022-08-17T06:15:29.792Z,97.50
2022-08-17T06:18:01.820Z,97.80
2022-08-17T06:20:56.500Z,97.10
2022-08-17T06:23:49.307Z,96.70
2022-08-17T06:26:27.549Z,95.70
2022-08-17T06:29:29.902Z,96.80
2022-08-17T06:31:57.314Z,96.00
2022-08-17T06:34:24.228Z,94.60
2022-08-17T06:37:01.664Z,93.80
2022-08-17T06:39:48.188Z,93.00
2022-08-17T06:42:54.982Z,92.70
2022-08-17T06:45:27.410Z,92.70
2022-08-17T06:48:24.837Z,91.30
2022-08-17T06:51:00.023Z,90.70
2022-08-17T06:53:40.338Z,90.20
2022-08-17T06:56:13.780Z,89.10
2022-08-17T06:58:43.322Z,87.80
2022-08-17T07:01:19.483Z,86.80
2022-08-17T07:03:54.517Z,86.60
2022-08-17T07:06:32.343Z,84.90
2022-08-17T07:09:21.482Z,84.60
2022-08-17T07:11:50.492Z,84.00
2022-08-17T07:14:31.982Z,83.00
2022-08-17T07:17:01.972Z,82.70
2022-08-17T07:19:32.362Z,82.10
2022-08-17T07:22:14.019Z,82.60
2022-08-17T07:24:58.259Z,82.70
2022-08-17T07:27:30.666Z,82.40
2022-08-17T07:30:10.278Z,81.90
2022-08-17T07:32:46.744Z,80.80
2022-08-17T07:35:18.231Z,80.80
2022-08-17T07:37:55.748Z,80.30
2022-08-17T07:40:29.713Z,80.00
2022-08-17T07:43:19.925Z,80.20
2022-08-17T07:46:37.775Z,79.00
2022-08-17T07:49:07.418Z,80.10
2022-08-17T07:51:36.469Z,78.50
2022-08-17T07:54:24.194Z,77.90
2022-08-17T07:56:55.460Z,78.10
2022-08-17T07:59:33.758Z,77.80
2022-08-17T08:02:03.745Z,77.60
2022-08-17T08:05:01.201Z,77.10
2022-08-17T08:07:51.037Z,77.40
2022-08-17T08:10:35.627Z,76.30
2022-08-17T08:13:22.616Z,75.40
2022-08-17T08:16:14.078Z,75.70
2022-08-17T08:18:55.872Z,74.00
2022-08-17T08:21:36.815Z,73.40
2022-08-17T08:24:12.808Z,73.00
2022-08-17T08:27:17.265Z,72.00
2022-08-17T08:29:46.784Z,72.60
2022-08-17T08:32:33.086Z,71.90
2022-08-17T08:35:08.253Z,70.70
2022-08-17T08:37:49.946Z,71.10
2022-08-17T08:40:35.902Z,71.50
2022-08-17T08:43:17.610Z,71.00
2022-08-17T08:46:14.343Z,70.50
2022-08-17T08:50:01.324Z,69.20
2022-08-17T08:52:43.066Z,68.90
2022-08-17T08:55:36.766Z,68.10
2022-08-17T08:58:31.908Z,67.90
2022-08-17T09:01:00.139Z,67.60
2022-08-17T09:03:53.297Z,67.80
2022-08-17T09:06:59.078Z,66.80
2022-08-17T09:10:00.364Z,66.60
2022-08-17T09:12:52.936Z,68.50
2022-08-17T09:15:44.723Z,69.40
2022-08-17T09:19:01.701Z,66.60
2022-08-17T09:21:18.206Z,65.90
2022-08-17T09:24:14.132Z,66.50
2022-08-17T09:27:00.980Z,65.10
2022-08-17T09:29:35.071Z,65.50
2022-08-17T09:32:07.481Z,65.00
2022-08-17T09:34:43.557Z,64.00
2022-08-17T09:38:07.828Z,66.10
2022-08-17T09:40:44.523Z,64.10
2022-08-17T09:43:37.364Z,66.50
2022-08-17T09:46:18.241Z,66.10
2022-08-17T09:49:07.163Z,63.70
2022-08-17T09:51:36.920Z,63.70
2022-08-17T09:54:36.959Z,61.50
2022-08-17T09:57:29.017Z,63.70
2022-08-17T10:00:25.520Z,63.40
2022-08-17T10:03:24.254Z,62.70
2022-08-17T10:06:02.753Z,63.80
2022-08-17T10:08:52.384Z,65.30
2022-08-17T10:11:51.335Z,65.00
2022-08-17T10:14:36.768Z,67.00
2022-08-17T10:17:21.383Z,64.40
2022-08-17T10:20:04.241Z,66.40
2022-08-17T10:23:18.088Z,66.10
2022-08-17T10:26:16.306Z,64.70
2022-08-17T10:28:55.119Z,65.50
2022-08-17T10:31:35.699Z,66.70
2022-08-17T10:34:27.930Z,63.50
2022-08-17T10:37:19.896Z,63.80
2022-08-17T10:40:35.922Z,62.90
2022-08-17T10:43:14.839Z,64.20
2022-08-17T10:46:10.544Z,66.40
2022-08-17T10:48:44.526Z,65.90
2022-08-17T10:51:36.390Z,63.60
2022-08-17T10:54:06.515Z,62.80
2022-08-17T10:56:42.988Z,63.10
2022-08-17T10:59:26.639Z,63.00
2022-08-17T11:02:04.338Z,63.40
2022-08-17T11:04:49.947Z,63.60
2022-08-17T11:07:37.825Z,63.40
2022-08-17T11:10:35.807Z,62.20
2022-08-17T11:13:16.027Z,63.30
2022-08-17T11:16:13.014Z,64.20
2022-08-17T11:19:08.518Z,61.20
2022-08-17T11:22:08.420Z,62.00
2022-08-17T11:24:47.745Z,62.40
2022-08-17T11:27:26.612Z,60.30
2022-08-17T11:30:01.920Z,61.10
2022-08-17T11:32:47.450Z,60.00
2022-08-17T11:35:20.655Z,59.50
2022-08-17T11:38:08.686Z,59.50
2022-08-17T11:41:18.919Z,60.40
2022-08-17T11:44:15.347Z,58.90
2022-08-17T11:47:37.172Z,59.70
2022-08-17T11:50:31.918Z,59.40
2022-08-17T11:52:58.725Z,59.80
2022-08-17T11:55:39.352Z,61.50
2022-08-17T11:58:08.501Z,61.30
2022-08-17T12:00:56.628Z,60.60
2022-08-17T12:03:32.424Z,62.00
2022-08-17T12:06:31.067Z,61.30
2022-08-17T12:09:08.416Z,61.10
2022-08-17T12:12:13.082Z,60.90
2022-08-17T12:17:40.972Z,62.60
2022-08-17T12:20:28.219Z,61.30
2022-08-17T12:23:07.596Z,60.20
2022-08-17T12:25:49.574Z,61.40
2022-08-17T12:28:25.867Z,61.50
2022-08-17T12:30:53.549Z,60.90
2022-08-17T12:33:28.550Z,61.80
2022-08-17T12:36:03.079Z,62.50
2022-08-17T12:38:36.099Z,61.70
2022-08-17T12:41:24.946Z,60.10
2022-08-17T12:44:01.518Z,61.20
2022-08-17T12:46:33.528Z,61.30
2022-08-17T12:49:18.087Z,60.60
2022-08-17T12:51:46.742Z,60.30
2022-08-17T12:54:40.214Z,61.80
2022-08-17T12:57:17.192Z,58.40
2022-08-17T12:59:48.801Z,58.20
2022-08-17T13:02:28.904Z,59.70
2022-08-17T13:05:00.943Z,60.60
2022-08-17T13:07:31.505Z,59.60
2022-08-17T13:09:58.616Z,60.10
2022-08-17T13:12:33.211Z,60.20
2022-08-17T13:15:00.474Z,61.10
2022-08-17T13:17:34.701Z,59.10
2022-08-17T13:20:04.841Z,59.00
2022-08-17T13:22:32.492Z,56.80
2022-08-17T13:25:07.331Z,57.40
2022-08-17T13:27:34.308Z,57.70
2022-08-17T13:30:07.672Z,57.30
2022-08-17T13:32:45.143Z,57.80
2022-08-17T13:35:39.311Z,55.70
2022-08-17T13:38:37.492Z,55.80
2022-08-17T13:41:06.321Z,55.80
2022-08-17T13:43:44.760Z,56.10
2022-08-17T13:46:25.161Z,54.80
2022-08-17T13:49:06.721Z,55.00
2022-08-17T13:51:43.375Z,51.80
2022-08-17T13:54:36.457Z,52.90
2022-08-17T13:57:06.876Z,54.80
2022-08-17T13:59:54.616Z,54.80
2022-08-17T14:02:27.692Z,52.50
2022-08-17T14:04:55.956Z,49.60
2022-08-17T14:07:22.660Z,51.50
2022-08-17T14:10:17.361Z,53.80
2022-08-17T14:12:45.385Z,49.30
2022-08-17T14:15:15.542Z,49.60
2022-08-17T14:17:42.303Z,50.10
2022-08-17T14:20:12.065Z,51.60
2022-08-17T14:22:44.242Z,52.20
2022-08-17T14:25:12.993Z,53.20
2022-08-17T14:27:43.580Z,53.70
2022-08-17T14:30:22.320Z,53.40
2022-08-17T14:32:49.548Z,53.90
2022-08-17T14:35:16.430Z,53.10
2022-08-17T14:37:45.676Z,52.50
2022-08-17T14:40:14.466Z,53.70
2022-08-17T14:42:43.480Z,55.00
2022-08-17T14:45:30.207Z,54.30
2022-08-17T14:48:07.417Z,52.10
2022-08-17T14:50:41.194Z,51.50
2022-08-17T14:53:10.500Z,51.40
2022-08-17T14:55:40.399Z,50.60
2022-08-17T14:58:08.906Z,50.10
2022-08-17T15:00:35.774Z,50.30
2022-08-17T15:03:03.450Z,50.30
2022-08-17T15:05:34.563Z,51.50
2022-08-17T15:08:02.204Z,50.50
2022-08-17T15:10:29.956Z,50.60
2022-08-17T15:12:57.144Z,51.70
2022-08-17T15:15:24.480Z,50.60
2022-08-17T15:17:51.774Z,50.10
2022-08-17T15:20:23.752Z,50.10
2022-08-17T15:22:55.128Z,51.80
2022-08-17T15:25:24.019Z,51.60
2022-08-17T15:27:50.994Z,52.00
2022-08-17T15:30:17.936Z,51.70
2022-08-17T15:32:51.210Z,52.10
2022-08-17T15:35:27.426Z,53.60
2022-08-17T15:38:09.908Z,53.30
2022-08-17T15:40:41.592Z,53.60
2022-08-17T15:43:14.750Z,53.20
2022-08-17T15:45:42.104Z,53.30
2022-08-17T15:48:09.339Z,53.30
2022-08-17T15:50:36.476Z,53.30
2022-08-17T15:53:04.742Z,53.40
2022-08-17T15:55:32.506Z,53.70
2022-08-17T15:57:59.650Z,53.90
2022-08-17T16:00:29.183Z,53.80
2022-08-17T16:03:46.395Z,54.50
2022-08-17T16:05:44.533Z,54.30
2022-08-17T16:08:17.255Z,54.50
2022-08-17T16:10:47.811Z,54.80
2022-08-17T16:13:17.656Z,55.00
2022-08-17T16:15:51.096Z,55.30
2022-08-17T16:18:30.742Z,55.60
2022-08-17T16:21:25.712Z,55.50
2022-08-17T16:24:13.143Z,55.00
2022-08-17T16:26:40.702Z,55.00
2022-08-17T16:29:08.589Z,55.00
2022-08-17T16:31:37.587Z,55.00
2022-08-17T16:34:17.438Z,55.10
2022-08-17T16:36:54.689Z,55.50
2022-08-17T16:39:27.500Z,55.80
2022-08-17T16:41:55.903Z,55.90
2022-08-17T16:44:22.828Z,55.50
2022-08-17T16:46:50.293Z,55.90
2022-08-17T16:49:36.157Z,55.50
2022-08-17T16:52:06.893Z,55.70
2022-08-17T16:54:35.356Z,56.00
2022-08-17T16:57:04.931Z,56.80
2022-08-17T16:59:40.720Z,56.30
2022-08-17T17:02:12.441Z,56.60
2022-08-17T17:05:05.580Z,56.60
2022-08-17T17:07:56.736Z,56.60
2022-08-17T17:10:30.255Z,58.30
2022-08-17T17:13:02.518Z,58.50
2022-08-17T17:15:43.838Z,59.10
2022-08-17T17:18:12.808Z,62.80
2022-08-17T17:20:48.791Z,63.10
2022-08-17T17:23:22.918Z,64.70
2022-08-17T17:26:22.628Z,65.70
2022-08-17T17:28:55.176Z,67.20
2022-08-17T17:31:25.287Z,68.40
2022-08-17T17:34:05.154Z,68.90
2022-08-17T17:36:38.328Z,70.20
2022-08-17T17:39:11.791Z,71.50
2022-08-17T17:41:56.938Z,71.60
2022-08-17T17:44:45.684Z,71.30
2022-08-17T17:47:13.068Z,71.60
2022-08-17T17:49:43.905Z,71.10
2022-08-17T17:52:41.019Z,71.60
2022-08-17T17:55:22.826Z,71.40
2022-08-17T17:58:27.121Z,73.60
2022-08-17T18:00:56.625Z,75.30
2022-08-17T18:03:50.428Z,75.70
2022-08-17T18:06:58.590Z,78.10
2022-08-17T18:09:40.101Z,79.10
2022-08-17T18:12:31.455Z,79.40
2022-08-17T18:15:21.566Z,80.80
2022-08-17T18:18:25.017Z,80.80
2022-08-17T18:20:53.785Z,80.90
2022-08-17T18:23:27.614Z,81.00
2022-08-17T18:25:55.878Z,81.20
2022-08-17T18:28:32.992Z,81.60
2022-08-17T18:31:11.600Z,81.40
2022-08-17T18:33:41.394Z,81.50
2022-08-17T18:36:08.746Z,81.40
2022-08-17T18:38:41.900Z,81.30
2022-08-17T18:41:23.672Z,81.10
2022-08-17T18:44:16.053Z,81.30
2022-08-17T18:46:42.789Z,82.50
2022-08-17T18:49:29.134Z,83.50
2022-08-17T18:52:16.811Z,84.80
2022-08-17T18:55:04.946Z,83.90
2022-08-17T18:57:53.454Z,85.50
2022-08-17T19:00:40.528Z,86.10
2022-08-17T19:03:16.422Z,85.30
2022-08-17T19:05:46.756Z,85.30
2022-08-17T19:08:28.815Z,85.60
2022-08-17T19:10:59.905Z,85.80
2022-08-17T19:13:38.526Z,85.20
2022-08-17T19:16:15.359Z,85.40
2022-08-17T19:19:02.765Z,86.10
2022-08-17T19:21:40.302Z,86.50
2022-08-17T19:24:13.241Z,85.60
2022-08-17T19:26:54.333Z,85.80
2022-08-17T19:29:57.913Z,86.20
2022-08-17T19:32:34.265Z,85.90
2022-08-17T19:35:02.586Z,87.10
2022-08-17T19:37:49.348Z,87.40
2022-08-17T19:40:53.158Z,87.80
2022-08-17T19:43:48.015Z,89.30
2022-08-17T19:46:27.900Z,89.20
2022-08-17T19:49:06.694Z,88.60
2022-08-17T19:52:22.575Z,88.10
2022-08-17T19:55:00.190Z,88.80
2022-08-17T19:57:51.015Z,88.50
2022-08-17T20:00:18.661Z,89.10
2022-08-17T20:02:59.992Z,89.20
2022-08-17T20:05:37.277Z,89.20
2022-08-17T20:08:21.107Z,89.20
2022-08-17T20:10:55.326Z,89.00
2022-08-17T20:13:48.996Z,89.60
2022-08-17T20:16:17.497Z,88.90
2022-08-17T20:19:00.724Z,89.20
2022-08-17T20:21:46.701Z,90.00
2022-08-17T20:24:22.340Z,90.40
2022-08-17T20:26:58.407Z,90.30
2022-08-17T20:29:29.557Z,90.50
2022-08-17T20:32:16.771Z,90.30
2022-08-17T20:34:46.795Z,90.00
2022-08-17T20:37:13.474Z,90.30
2022-08-17T20:40:05.856Z,90.20
2022-08-17T20:42:34.424Z,90.10
2022-08-17T20:45:40.902Z,90.40
2022-08-17T20:48:36.090Z,90.60
2022-08-17T20:51:40.122Z,90.10
2022-08-17T20:54:27.753Z,85.10
2022-08-17T20:56:57.734Z,84.30
2022-08-17T20:59:25.535Z,82.50
2022-08-17T21:02:18.127Z,81.80
2022-08-17T21:04:54.354Z,81.80
2022-08-17T21:07:29.151Z,83.80
2022-08-17T21:10:15.644Z,83.40
2022-08-17T21:12:56.152Z,84.00
2022-08-17T21:15:45.884Z,85.30
2022-08-17T21:18:31.176Z,88.10
2022-08-17T21:21:19.535Z,90.20
2022-08-17T21:24:16.656Z,91.20
2022-08-17T21:26:58.756Z,91.80
2022-08-17T21:29:31.046Z,92.90
2022-08-17T21:31:59.366Z,93.60
2022-08-17T21:34:42.543Z,94.60
2022-08-17T21:37:23.893Z,95.10
2022-08-17T21:39:58.813Z,95.70
2022-08-17T21:42:31.279Z,96.20
2022-08-17T21:45:09.488Z,97.00
2022-08-17T21:47:43.532Z,97.90
2022-08-17T21:50:20.877Z,98.20
2022-08-17T21:52:49.974Z,98.70
2022-08-17T21:55:28.990Z,98.90
2022-08-17T21:58:14.376Z,99.00
2022-08-17T22:00:44.574Z,98.90
2022-08-17T22:03:26.117Z,99.40
2022-08-17T22:05:52.949Z,99.80
2022-08-17T22:08:23.926Z,99.90
2022-08-17T22:10:59.300Z,99.90
2022-08-17T22:13:29.833Z,99.90
2022-08-17T22:16:28.944Z,99.80
2022-08-17T22:18:58.074Z,99.90
2022-08-17T22:21:25.539Z,99.90
2022-08-17T22:24:22.575Z,99.90
2022-08-17T22:27:11.786Z,99.90
2022-08-17T22:29:59.411Z,99.90
2022-08-17T22:32:42.179Z,99.90
2022-08-17T22:35:29.309Z,99.90
2022-08-17T22:37:57.174Z,99.90
2022-08-17T22:40:33.661Z,99.90
2022-08-17T22:43:03.312Z,99.90
2022-08-17T22:45:31.158Z,99.90
2022-08-17T22:48:02.034Z,99.90
2022-08-17T22:50:31.352Z,99.90
2022-08-17T22:53:22.134Z,99.90
2022-08-17T22:56:13.748Z,99.90
2022-08-17T22:59:17.812Z,99.90
2022-08-17T23:02:05.513Z,99.90
2022-08-17T23:04:41.537Z,99.90
2022-08-17T23:07:08.576Z,99.90
2022-08-17T23:09:35.882Z,99.90
2022-08-17T23:12:07.587Z,99.90
2022-08-17T23:14:39.264Z,99.90
2022-08-17T23:17:06.992Z,99.90
2022-08-17T23:19:34.540Z,99.90
2022-08-17T23:22:04.316Z,99.90
2022-08-17T23:24:35.617Z,99.90
2022-08-17T23:27:03.527Z,99.90
2022-08-17T23:29:30.325Z,99.90
2022-08-17T23:31:59.915Z,99.90
2022-08-17T23:34:28.064Z,99.90
2022-08-17T23:36:55.769Z,99.90
2022-08-17T23:39:27.714Z,99.90
2022-08-17T23:41:58.986Z,99.90
2022-08-17T23:44:26.976Z,99.90
2022-08-17T23:46:54.597Z,99.90
2022-08-17T23:49:21.435Z,99.90
2022-08-17T23:51:48.872Z,99.90
2022-08-17T23:54:27.799Z,99.90
2022-08-17T23:56:54.539Z,99.90
2022-08-17T23:59:22.842Z,99.90
